KWAL/WAL METAR and TAF weather

Enter ICAO airport designator
Station Type Date Time Source
KWAL METAR 2022/01/29 12:28 UTC NOAA

KWAL 291228Z AUTO 33017G27KT 3/4SM -SN BR FEW010 SCT017 OVC021 M03/M05 A2968 RMK AO2 PK WND 33027/1155 P0000 T10331050 $


Station Type Date Time Source
KWAL Decoded METAR 2022/01/29 12:28 UTC NOAA

WALLOPS FLIGHT FAC AIRPORT , VA, United States (KWAL) 37-56N 075-28W 14M
Jan 29, 2022 - 07:28 AM EST / 2022.01.29 1228 UTC
Wind: from the NNW (330 degrees) at 20 MPH (17 KT) gusting to 31 MPH (27 KT):0
Visibility: 3/4 mile(s):0
Sky conditions: overcast
Weather: light snow; mist
Precipitation last hour: A trace
Temperature: 26.1 F (-3.3 C)
Windchill: 12 F (-11 C):1
Dew Point: 23.0 F (-5.0 C)
Relative Humidity: 87%
Pressure (altimeter): 29.68 in. Hg (1005 hPa)
ob: KWAL 291228Z AUTO 33017G27KT 3/4SM -SN BR FEW010 SCT017 OVC021 M03/M05 A2968 RMK AO2 PK WND 33027/1155 P0000 T10331050
cycle: 12

Station Type Date Time Source
KWAL TAF UTC NOAA

Error!

Example: see airport list